Detall de PIREP

Printer-friendly versionPDF version

[2011/08/06 07:55:00]
Flight IATA:CT1004
Pilot Number:042
Company ICAO:CAT
Aircraft Type:B744/E
PAX:300
Departing Airport: LEBL
Destination Airport: MUHA
Alternate Airport:KMIA
Online: VATSIM
Route:SENIA/N0450F310 UW96 NEXAS UN975 ELVAR DCT BUSEN DCT KOMUT/N0450F320 DCT FRS 3937N 3844N 3749N 3557N LAZEY/N0450F350 M329 ZQA R628 TANIA
Flight Level:F380
No Slew and time accel
No pause
Crash detect
Detect pilot in Cockpit between each 30 and 45 minutes
07:55 Zero fuel Weight: 466689 Lbs, Fuel Weight: 324583 Lbs
07:55 VATSIM:LEBL 060730Z 22009KT 130V240 9999 SCT010 SCT019TCU 26/23 Q1010 NOSIG
07:55 VATSIM:MUHA 060655Z 20002KT 7000 FEW025 24/23 Q1014
07:55 VOICE CATALONIAN/SUMMER CHARTER
08:00 Parking Brakes off
08:10 Take-off
08:10 Take off Weight: 783443 Lbs
08:10 Wind: 179 @ 009 Knots Heading: 243
08:10 POS N41 17 00 E002 04 43
08:10 Flaps:4 at 195 Knots
08:10 Gear Up: 195 Knots
08:10 Flaps:3 at 188 Knots
08:10 Flaps:2 at 203 Knots
08:11 Flaps:1 at 257 Knots
08:13 Flaps:0 at 246 Knots
08:25 Wind:277@038 Knots Heading: 271 Ground Speed: 459 Knots Altitude 26781 ft
08:40 Wind:312@047 Knots Heading: 253 Ground Speed: 475 Knots Altitude 33205 ft
08:55 Wind:309@048 Knots Heading: 259 Ground Speed: 468 Knots Altitude 34025 ft
09:10 Wind:309@049 Knots Heading: 248 Ground Speed: 470 Knots Altitude 34058 ft
09:25 Wind:287@035 Knots Heading: 254 Ground Speed: 467 Knots Altitude 34107 ft
09:40 Wind:269@029 Knots Heading: 262 Ground Speed: 465 Knots Altitude 34097 ft
09:55 Wind:269@029 Knots Heading: 261 Ground Speed: 464 Knots Altitude 34091 ft
10:10 Wind:259@027 Knots Heading: 279 Ground Speed: 471 Knots Altitude 34120 ft
10:25 Wind:256@013 Knots Heading: 278 Ground Speed: 477 Knots Altitude 34169 ft
10:40Wind:272@019 Knots Heading: 277 Ground Speed: 473 Knots Altitude 34215 ft
10:55 Wind:310@008 Knots Heading: 276 Ground Speed: 484 Knots Altitude 34235 ft
11:10 Wind:286@013 Knots Heading: 274 Ground Speed: 481 Knots Altitude 34229 ft
11:25 Wind:317@006 Knots Heading: 273 Ground Speed: 481 Knots Altitude 34229 ft
11:40 Wind:147@008 Knots Heading: 264 Ground Speed: 498 Knots Altitude 34229 ft
11:55 Wind:147@008 Knots Heading: 263 Ground Speed: 498 Knots Altitude 34229 ft
12:10 Wind:127@003 Knots Heading: 261 Ground Speed: 495 Knots Altitude 34225 ft
12:25 Wind:127@003 Knots Heading: 259 Ground Speed: 494 Knots Altitude 34206 ft
12:40 Wind:226@010 Knots Heading: 257 Ground Speed: 479 Knots Altitude 34143 ft
12:55 Wind:243@008 Knots Heading: 256 Ground Speed: 475 Knots Altitude 34071 ft
13:10 Wind:243@008 Knots Heading: 255 Ground Speed: 470 Knots Altitude 33982 ft
13:25 Wind:229@035 Knots Heading: 252 Ground Speed: 448 Knots Altitude 33989 ft
13:40 Wind:277@024 Knots Heading: 254 Ground Speed: 458 Knots Altitude 34117 ft
13:55 Wind:279@024 Knots Heading: 253 Ground Speed: 461 Knots Altitude 35049 ft
14:10 Wind:283@026 Knots Heading: 252 Ground Speed: 462 Knots Altitude 35078 ft
14:13 TOC
14:13 Fuel Weight: 159597 Lb
14:25 Wind:315@024 Knots Heading: 251 Ground Speed: 505 Knots Altitude 40121 ft
14:40 Wind:003@040 Knots Heading: 251 Ground Speed: 530 Knots Altitude 40137 ft
14:55 Wind:003@040 Knots Heading: 245 Ground Speed: 540 Knots Altitude 40141 ft
16:10 Wind:138@017 Knots Heading: 233 Ground Speed: 524 Knots Altitude 40075 ft
16:25 Wind:094@006 Knots Heading: 234 Ground Speed: 526 Knots Altitude 40068 ft
16:40 Wind:108@012 Knots Heading: 240 Ground Speed: 513 Knots Altitude 40059 ft
16:43 TOD
16:43 Fuel Weight: 106402 Lb
16:56 Wind:092@008 Knots Heading: 253 Ground Speed: 404 Knots Altitude 20223 ft
17:11 Wind:141@007 Knots Heading: 238 Ground Speed: 270 Knots Altitude 10521 ft
17:13 Flaps:1 at 226 Knots
17:19 Flaps:2 at 188 Knots
17:21 Flaps:3 at 176 Knots
17:25 Gear Down: 178 Knots
17:25 Flaps:4 at 176 Knots
17:26 Wind:095@001 Knots Heading: 053 Ground Speed: 182 Knots Altitude 1998 ft
17:26 Flaps:5 at 170 Knots
17:26 Flaps:6 at 155 Knots
17:28 TouchDown:Rate -116 ft/min Speed: 142 Knots
17:28 VATSIM:MUHA 061655Z 21004KT 150V280 9999 BKN025 33/23 Q1016
17:28 Land
17:28 Wind:012@003 Knots
17:28 Heading: 054
17:28 Flight Duration: 09:18
17:28 Landing Weight: 556799 Lbs
17:28 POS N22 59 14 W082 24 42
17:31 Parking brakes on
17:31 Block to Block Duration: 09:31
17:31 Final Fuel: 93873 Lbls
17:31 Spent Fuel: 230710 Lbls
17:31 Flight Length: 3654 NM
17:31 TOD Land Length: 142 NM

Exportar CSV

Powered by Drupal - Modified by Danger4k